createdAt,value
2024-02-24T00:01:49.290Z,1.47
2024-02-24T00:04:16.482Z,1.40
2024-02-24T00:06:43.594Z,1.50
2024-02-24T00:09:10.701Z,1.50
2024-02-24T00:11:38.004Z,1.63
2024-02-24T00:14:05.098Z,1.30
2024-02-24T00:16:32.273Z,1.52
2024-02-24T00:19:01.110Z,1.55
2024-02-24T00:21:28.692Z,1.60
2024-02-24T00:23:55.790Z,1.30
2024-02-24T00:26:23.015Z,1.50
2024-02-24T00:28:50.970Z,1.70
2024-02-24T00:31:18.623Z,1.52
2024-02-24T00:33:45.639Z,1.90
2024-02-24T00:36:12.667Z,1.37
2024-02-24T00:38:40.174Z,1.70
2024-02-24T00:41:07.569Z,1.80
2024-02-24T00:43:34.741Z,1.95
2024-02-24T00:46:01.899Z,1.73
2024-02-24T00:48:30.238Z,1.73
2024-02-24T00:50:57.756Z,2.13
2024-02-24T00:53:25.648Z,2.00
2024-02-24T00:55:52.765Z,2.10
2024-02-24T00:58:19.988Z,2.47
2024-02-24T01:00:47.230Z,2.28
2024-02-24T01:03:14.331Z,2.15
2024-02-24T01:05:43.303Z,3.37
2024-02-24T01:08:10.902Z,2.55
2024-02-24T01:10:38.291Z,2.80
2024-02-24T01:13:05.609Z,2.20
2024-02-24T01:15:34.201Z,2.10
2024-02-24T01:18:04.794Z,2.15
2024-02-24T01:20:32.330Z,1.40
2024-02-24T01:23:01.582Z,1.60
2024-02-24T01:25:28.796Z,1.70
2024-02-24T01:27:55.957Z,1.27
2024-02-24T01:30:24.253Z,1.30
2024-02-24T01:32:51.891Z,1.60
2024-02-24T01:35:19.191Z,1.48
2024-02-24T01:37:46.232Z,1.30
2024-02-24T01:40:13.515Z,1.60
2024-02-24T01:42:44.582Z,1.55
2024-02-24T01:45:12.910Z,1.48
2024-02-24T01:47:40.414Z,1.58
2024-02-24T01:50:10.963Z,1.63
2024-02-24T01:52:42.732Z,1.50
2024-02-24T01:55:11.024Z,1.55
2024-02-24T01:57:46.310Z,1.70
2024-02-24T02:00:14.103Z,1.53
2024-02-24T02:02:44.386Z,1.60
2024-02-24T02:05:13.420Z,1.45
2024-02-24T02:07:40.582Z,1.60
2024-02-24T02:10:08.114Z,1.48
2024-02-24T02:12:37.200Z,1.50
2024-02-24T02:15:05.152Z,1.60
2024-02-24T02:17:32.670Z,1.25
2024-02-24T02:20:04.873Z,1.23
2024-02-24T02:22:32.986Z,2.20
2024-02-24T02:25:00.275Z,1.55
2024-02-24T02:27:27.347Z,1.70
2024-02-24T02:29:54.521Z,1.45
2024-02-24T02:32:21.615Z,1.75
2024-02-24T02:34:48.713Z,1.70
2024-02-24T02:37:15.776Z,1.60
2024-02-24T02:39:43.052Z,1.42
2024-02-24T02:42:11.077Z,1.67
2024-02-24T02:44:38.206Z,1.80
2024-02-24T02:47:14.488Z,1.50
2024-02-24T02:49:44.692Z,1.60
2024-02-24T02:52:11.754Z,1.60
2024-02-24T02:54:38.865Z,1.42
2024-02-24T02:57:05.986Z,1.42
2024-02-24T02:59:36.701Z,1.45
2024-02-24T03:02:03.992Z,1.40
2024-02-24T03:04:31.046Z,1.65
2024-02-24T03:06:58.103Z,1.42
2024-02-24T03:09:25.156Z,1.30
2024-02-24T03:11:52.309Z,1.83
2024-02-24T03:14:20.063Z,1.47
2024-02-24T03:16:47.189Z,1.65
2024-02-24T03:19:14.357Z,1.30
2024-02-24T03:21:41.622Z,1.38
2024-02-24T03:24:09.040Z,1.40
2024-02-24T03:26:36.091Z,1.48
2024-02-24T03:29:03.087Z,1.58
2024-02-24T03:31:30.174Z,1.58
2024-02-24T03:33:57.467Z,1.60
2024-02-24T03:36:25.605Z,2.37
2024-02-24T03:38:52.611Z,1.60
2024-02-24T03:41:19.676Z,1.60
2024-02-24T03:43:46.765Z,2.53
2024-02-24T03:46:13.854Z,2.05
2024-02-24T03:48:40.934Z,1.52
2024-02-24T03:51:08.068Z,1.77
2024-02-24T03:53:35.259Z,1.83
2024-02-24T03:56:02.633Z,1.45
2024-02-24T03:58:30.376Z,1.70
2024-02-24T04:00:58.018Z,1.52
2024-02-24T04:03:25.276Z,1.63
2024-02-24T04:05:52.571Z,1.77
2024-02-24T04:08:19.663Z,1.45
2024-02-24T04:10:46.958Z,1.77
2024-02-24T04:13:14.099Z,1.80
2024-02-24T04:15:48.076Z,1.95
2024-02-24T04:18:16.493Z,1.75
2024-02-24T04:20:46.156Z,1.50
2024-02-24T04:23:13.380Z,1.60
2024-02-24T04:25:40.631Z,2.13
2024-02-24T04:28:07.736Z,1.88
2024-02-24T04:30:36.471Z,1.60
2024-02-24T04:33:03.916Z,1.40
2024-02-24T04:35:31.115Z,1.58
2024-02-24T04:37:58.194Z,1.50
2024-02-24T04:40:25.203Z,1.90
2024-02-24T04:42:52.311Z,1.88
2024-02-24T04:45:19.334Z,1.80
2024-02-24T04:47:46.502Z,1.80
2024-02-24T04:50:13.756Z,1.60
2024-02-24T04:52:40.744Z,2.10
2024-02-24T04:55:08.171Z,1.70
2024-02-24T04:57:35.186Z,1.60
2024-02-24T05:00:02.293Z,1.80
2024-02-24T05:02:29.331Z,1.73
2024-02-24T05:04:56.485Z,1.58
2024-02-24T05:07:24.595Z,2.15
2024-02-24T05:09:51.660Z,1.77
2024-02-24T05:12:18.770Z,1.63
2024-02-24T05:14:51.663Z,1.65
2024-02-24T05:17:18.821Z,1.65
2024-02-24T05:19:45.870Z,2.30
2024-02-24T05:22:13.034Z,1.80
2024-02-24T05:24:40.103Z,2.10
2024-02-24T05:27:07.214Z,1.73
2024-02-24T05:29:35.081Z,1.67
2024-02-24T05:32:02.343Z,1.60
2024-02-24T05:34:29.554Z,1.70
2024-02-24T05:36:56.674Z,1.93
2024-02-24T05:39:23.809Z,1.63
2024-02-24T05:41:51.925Z,1.90
2024-02-24T05:44:19.096Z,1.65
2024-02-24T05:46:46.309Z,1.60
2024-02-24T05:49:13.491Z,1.48
2024-02-24T05:51:43.831Z,2.10
2024-02-24T05:54:10.892Z,2.13
2024-02-24T05:56:38.334Z,1.70
2024-02-24T05:59:05.467Z,1.70
2024-02-24T06:01:32.446Z,2.03
2024-02-24T06:03:59.464Z,1.88
2024-02-24T06:06:26.742Z,1.85
2024-02-24T06:08:54.210Z,2.37
2024-02-24T06:11:21.539Z,1.98
2024-02-24T06:13:48.834Z,1.88
2024-02-24T06:16:15.905Z,2.33
2024-02-24T06:18:43.190Z,1.70
2024-02-24T06:21:10.417Z,2.00
2024-02-24T06:23:37.502Z,1.67
2024-02-24T06:26:04.820Z,2.10
2024-02-24T06:28:31.927Z,2.22
2024-02-24T06:30:59.062Z,2.38
2024-02-24T06:33:26.150Z,2.10
2024-02-24T06:35:53.622Z,2.22
2024-02-24T06:38:20.754Z,2.28
2024-02-24T06:40:48.069Z,2.20
2024-02-24T06:43:15.742Z,2.33
2024-02-24T06:45:42.967Z,2.78
2024-02-24T06:48:10.431Z,2.00
2024-02-24T06:50:37.563Z,2.20
2024-02-24T06:53:04.795Z,2.85
2024-02-24T06:55:31.810Z,2.30
2024-02-24T06:57:58.929Z,2.33
2024-02-24T07:00:26.011Z,2.13
2024-02-24T07:02:54.753Z,2.10
2024-02-24T07:05:22.093Z,2.25
2024-02-24T07:07:49.439Z,2.80
2024-02-24T07:10:16.608Z,2.63
2024-02-24T07:12:44.432Z,2.47
2024-02-24T07:15:13.059Z,2.33
2024-02-24T07:17:40.576Z,1.90
2024-02-24T07:20:08.691Z,2.20
2024-02-24T07:22:35.847Z,2.35
2024-02-24T07:25:03.003Z,2.17
2024-02-24T07:27:35.074Z,2.60
2024-02-24T07:30:02.663Z,2.10
2024-02-24T07:32:29.647Z,2.53
2024-02-24T07:34:56.782Z,2.17
2024-02-24T07:37:23.818Z,1.98
2024-02-24T07:39:51.108Z,2.30
2024-02-24T07:42:18.286Z,2.13
2024-02-24T07:44:45.183Z,1.90
2024-02-24T07:47:12.181Z,2.42
2024-02-24T07:49:39.213Z,2.28
2024-02-24T07:52:06.386Z,2.40
2024-02-24T07:54:33.480Z,2.33
2024-02-24T07:57:00.572Z,2.30
2024-02-24T07:59:27.801Z,2.22
2024-02-24T08:01:54.886Z,2.10
2024-02-24T08:04:22.228Z,1.98
2024-02-24T08:06:49.666Z,2.45
2024-02-24T08:09:16.902Z,2.40
2024-02-24T08:11:44.391Z,2.45
2024-02-24T08:14:11.790Z,2.20
2024-02-24T08:16:39.705Z,2.33
2024-02-24T08:19:12.055Z,2.25
2024-02-24T08:21:39.750Z,2.08
2024-02-24T08:24:10.951Z,2.15
2024-02-24T08:26:41.236Z,2.28
2024-02-24T08:29:11.298Z,2.50
2024-02-24T08:31:43.807Z,2.00
2024-02-24T08:34:12.305Z,1.67
2024-02-24T08:36:39.544Z,2.45
2024-02-24T08:39:06.842Z,1.90
2024-02-24T08:41:36.363Z,1.63
2024-02-24T08:44:06.209Z,1.80
2024-02-24T08:46:33.178Z,1.90
2024-02-24T08:49:00.272Z,2.15
2024-02-24T08:51:28.464Z,1.88
2024-02-24T08:53:56.235Z,1.67
2024-02-24T08:56:24.365Z,2.20
2024-02-24T08:58:51.880Z,2.15
2024-02-24T09:01:22.313Z,1.80
2024-02-24T09:03:49.686Z,2.00
2024-02-24T09:06:17.326Z,2.28
2024-02-24T09:08:44.719Z,2.20
2024-02-24T09:11:12.200Z,2.10
2024-02-24T09:13:39.475Z,1.90
2024-02-24T09:16:06.960Z,2.38
2024-02-24T09:18:34.305Z,1.90
2024-02-24T09:21:01.468Z,2.00
2024-02-24T09:23:28.791Z,2.10
2024-02-24T09:25:55.903Z,1.83
2024-02-24T09:28:22.965Z,1.67
2024-02-24T09:30:50.054Z,2.30
2024-02-24T09:33:17.454Z,2.00
2024-02-24T09:35:45.017Z,2.25
2024-02-24T09:38:12.118Z,1.90
2024-02-24T09:40:39.236Z,1.90
2024-02-24T09:43:06.831Z,1.97
2024-02-24T09:45:43.053Z,1.92
2024-02-24T09:48:12.228Z,2.50
2024-02-24T09:50:39.944Z,2.10
2024-02-24T09:53:07.347Z,2.20
2024-02-24T09:55:35.906Z,1.80
2024-02-24T09:58:04.470Z,1.80
2024-02-24T10:00:31.494Z,1.80
2024-02-24T10:02:59.547Z,2.10
2024-02-24T10:05:27.786Z,1.98
2024-02-24T10:07:56.720Z,1.77
2024-02-24T10:10:29.312Z,2.10
2024-02-24T10:12:58.023Z,1.50
2024-02-24T10:15:26.262Z,1.70
2024-02-24T10:17:58.934Z,1.42
2024-02-24T10:20:26.635Z,1.50
2024-02-24T10:22:54.058Z,1.50
2024-02-24T10:25:21.623Z,1.77
2024-02-24T10:27:49.199Z,1.92
2024-02-24T10:30:16.390Z,1.40
2024-02-24T10:32:44.193Z,1.50
2024-02-24T10:35:12.245Z,1.83
2024-02-24T10:37:56.846Z,1.50
2024-02-24T10:40:26.571Z,1.73
2024-02-24T10:42:55.086Z,1.50
2024-02-24T10:45:22.683Z,1.60
2024-02-24T10:47:52.574Z,1.77
2024-02-24T10:50:20.453Z,1.55
2024-02-24T10:52:49.603Z,1.50
2024-02-24T10:55:20.977Z,1.20
2024-02-24T10:57:50.384Z,1.17
2024-02-24T11:00:32.157Z,0.90
2024-02-24T11:03:00.735Z,1.00
2024-02-24T11:05:29.239Z,0.90
2024-02-24T11:07:56.472Z,1.00
2024-02-24T11:10:33.532Z,1.00
2024-02-24T11:13:02.770Z,0.80
2024-02-24T11:15:29.788Z,0.88
2024-02-24T11:17:58.880Z,0.70
2024-02-24T11:20:35.481Z,0.70
2024-02-24T11:23:24.815Z,0.73
2024-02-24T11:26:12.392Z,0.60
2024-02-24T11:28:47.080Z,0.50
2024-02-24T11:31:37.932Z,0.50
2024-02-24T11:34:07.286Z,0.50
2024-02-24T11:36:36.676Z,0.60
2024-02-24T11:39:04.731Z,0.70
2024-02-24T11:41:32.767Z,0.60
2024-02-24T11:44:00.644Z,0.60
2024-02-24T11:46:28.365Z,0.80
2024-02-24T11:48:55.855Z,0.50
2024-02-24T11:51:26.336Z,0.50
2024-02-24T11:53:53.804Z,0.50
2024-02-24T11:56:20.929Z,0.50
2024-02-24T11:58:48.035Z,0.47
2024-02-24T12:01:15.864Z,0.43
2024-02-24T12:03:54.650Z,0.70
2024-02-24T12:06:22.336Z,0.40
2024-02-24T12:08:49.864Z,0.55
2024-02-24T12:11:17.270Z,0.30
2024-02-24T12:13:47.181Z,0.30
2024-02-24T12:16:14.721Z,0.22
2024-02-24T12:18:43.089Z,0.40
2024-02-24T12:21:14.046Z,0.20
2024-02-24T12:23:44.732Z,0.40
2024-02-24T12:26:13.530Z,0.30
2024-02-24T12:28:41.490Z,0.28
2024-02-24T12:31:09.902Z,0.25
2024-02-24T12:33:37.564Z,0.20
2024-02-24T12:36:10.273Z,0.30
2024-02-24T12:38:39.706Z,0.20
2024-02-24T12:41:11.534Z,0.20
2024-02-24T12:43:40.130Z,0.20
2024-02-24T12:46:09.677Z,0.20
2024-02-24T12:48:39.891Z,0.30
2024-02-24T12:51:09.770Z,0.30
2024-02-24T12:53:36.869Z,0.30
2024-02-24T12:56:04.117Z,0.30
2024-02-24T12:58:31.090Z,0.50
2024-02-24T13:00:58.446Z,0.35
2024-02-24T13:03:25.879Z,0.32
2024-02-24T13:05:53.089Z,0.45
2024-02-24T13:08:20.192Z,0.30
2024-02-24T13:10:47.500Z,0.40
2024-02-24T13:13:14.640Z,0.40
2024-02-24T13:15:41.697Z,0.40
2024-02-24T13:18:09.245Z,0.30
2024-02-24T13:20:36.427Z,0.40
2024-02-24T13:23:03.463Z,0.30
2024-02-24T13:25:30.422Z,0.35
2024-02-24T13:27:57.355Z,0.20
2024-02-24T13:30:24.450Z,0.47
2024-02-24T13:32:52.058Z,0.40
2024-02-24T13:35:19.552Z,0.40
2024-02-24T13:37:46.588Z,0.50
2024-02-24T13:40:13.429Z,0.60
2024-02-24T13:42:40.478Z,0.40
2024-02-24T13:45:08.419Z,0.40
2024-02-24T13:47:36.437Z,0.50
2024-02-24T13:50:04.031Z,0.30
2024-02-24T13:52:30.943Z,0.40
2024-02-24T13:54:58.067Z,0.57
2024-02-24T13:57:25.085Z,0.50
2024-02-24T13:59:52.505Z,0.43
2024-02-24T14:02:19.440Z,0.37
2024-02-24T14:04:46.538Z,0.50
2024-02-24T14:07:14.976Z,0.40
2024-02-24T14:09:42.694Z,0.35
2024-02-24T14:12:11.963Z,0.40
2024-02-24T14:14:39.240Z,0.65
2024-02-24T14:17:06.595Z,0.45
2024-02-24T14:19:33.810Z,0.43
2024-02-24T14:22:01.648Z,0.40
2024-02-24T14:24:28.652Z,0.50
2024-02-24T14:26:56.165Z,0.65
2024-02-24T14:29:23.560Z,0.40
2024-02-24T14:31:51.091Z,0.60
2024-02-24T14:34:18.194Z,0.50
2024-02-24T14:36:45.431Z,0.40
2024-02-24T14:39:12.340Z,0.32
2024-02-24T14:41:39.636Z,0.40
2024-02-24T14:44:06.620Z,0.65
2024-02-24T14:46:33.552Z,0.47
2024-02-24T14:49:00.734Z,0.40
2024-02-24T14:51:27.863Z,0.70
2024-02-24T14:53:54.920Z,0.70
2024-02-24T14:56:22.307Z,0.45
2024-02-24T14:58:49.470Z,0.50
2024-02-24T15:01:16.461Z,0.60
2024-02-24T15:03:45.886Z,0.68
2024-02-24T15:06:15.963Z,0.50
2024-02-24T15:08:43.318Z,0.82
2024-02-24T15:11:10.392Z,0.75
2024-02-24T15:13:38.129Z,1.02
2024-02-24T15:16:06.194Z,0.50
2024-02-24T15:18:33.707Z,0.50
2024-02-24T15:21:01.085Z,0.70
2024-02-24T15:23:28.267Z,0.75
2024-02-24T15:25:55.486Z,0.43
2024-02-24T15:28:23.445Z,0.30
2024-02-24T15:30:50.567Z,0.40
2024-02-24T15:33:17.720Z,0.80
2024-02-24T15:35:45.098Z,0.70
2024-02-24T15:38:12.200Z,0.50
2024-02-24T15:40:42.074Z,1.17
2024-02-24T15:43:09.708Z,0.80
2024-02-24T15:45:36.799Z,0.60
2024-02-24T15:48:04.131Z,0.50
2024-02-24T15:50:31.170Z,0.50
2024-02-24T15:52:58.127Z,0.60
2024-02-24T15:55:25.182Z,0.40
2024-02-24T15:57:52.885Z,0.47
2024-02-24T16:00:20.749Z,0.60
2024-02-24T16:02:47.784Z,0.40
2024-02-24T16:05:17.974Z,0.50
2024-02-24T16:07:44.917Z,0.53
2024-02-24T16:10:11.837Z,0.40
2024-02-24T16:12:38.782Z,0.50
2024-02-24T16:15:06.106Z,0.40
2024-02-24T16:17:35.832Z,0.40
2024-02-24T16:20:03.163Z,0.30
2024-02-24T16:22:30.133Z,0.50
2024-02-24T16:24:57.191Z,0.60
2024-02-24T16:27:24.072Z,1.20
2024-02-24T16:29:51.186Z,0.60
2024-02-24T16:32:18.196Z,0.88
2024-02-24T16:34:45.742Z,1.30
2024-02-24T16:37:12.722Z,1.60
2024-02-24T16:39:39.659Z,5.40
2024-02-24T16:42:07.644Z,6.25
2024-02-24T16:44:34.614Z,4.13
2024-02-24T16:47:01.619Z,5.43
2024-02-24T16:49:28.614Z,9.18
2024-02-24T16:51:55.519Z,7.07
2024-02-24T16:54:24.154Z,7.72
2024-02-24T16:56:51.182Z,10.47
2024-02-24T16:59:18.593Z,13.40
2024-02-24T17:01:45.565Z,11.70
2024-02-24T17:04:12.732Z,16.38
2024-02-24T17:06:41.245Z,13.23
2024-02-24T17:09:10.139Z,2.80
2024-02-24T17:11:37.521Z,1.25
2024-02-24T17:14:04.558Z,1.00
2024-02-24T17:16:31.584Z,1.60
2024-02-24T17:18:59.082Z,1.60
2024-02-24T17:21:27.744Z,1.88
2024-02-24T17:23:56.243Z,1.38
2024-02-24T17:26:23.770Z,1.03
2024-02-24T17:28:51.529Z,1.20
2024-02-24T17:31:18.806Z,0.77
2024-02-24T17:33:47.383Z,1.13
2024-02-24T17:36:14.477Z,1.17
2024-02-24T17:38:41.973Z,1.00
2024-02-24T17:41:08.998Z,1.07
2024-02-24T17:43:35.921Z,0.90
2024-02-24T17:46:03.767Z,0.90
2024-02-24T17:48:31.499Z,0.85
2024-02-24T17:50:58.924Z,0.85
2024-02-24T17:53:25.971Z,0.88
2024-02-24T17:55:53.199Z,0.70
2024-02-24T17:58:29.247Z,0.80
2024-02-24T18:01:03.538Z,0.75
2024-02-24T18:03:30.646Z,0.60
2024-02-24T18:05:57.929Z,0.70
2024-02-24T18:08:25.138Z,1.00
2024-02-24T18:10:52.237Z,0.95
2024-02-24T18:13:19.683Z,1.27
2024-02-24T18:15:48.828Z,1.02
2024-02-24T18:18:18.015Z,0.80
2024-02-24T18:20:45.215Z,0.93
2024-02-24T18:23:12.188Z,0.80
2024-02-24T18:25:39.276Z,0.90
2024-02-24T18:28:06.430Z,5.40
2024-02-24T18:30:33.502Z,1.30
2024-02-24T18:33:01.777Z,1.50
2024-02-24T18:35:28.846Z,1.65
2024-02-24T18:37:55.830Z,1.00
2024-02-24T18:40:22.766Z,0.73
2024-02-24T18:42:49.650Z,0.90
2024-02-24T18:45:17.536Z,1.10
2024-02-24T18:47:44.855Z,0.80
2024-02-24T18:50:12.474Z,0.80
2024-02-24T18:52:39.655Z,0.63
2024-02-24T18:55:07.315Z,0.70
2024-02-24T18:57:34.215Z,0.98
2024-02-24T19:00:01.308Z,0.70
2024-02-24T19:02:28.596Z,1.00
2024-02-24T19:04:55.825Z,0.90
2024-02-24T19:07:22.856Z,1.10
2024-02-24T19:09:50.006Z,1.00
2024-02-24T19:12:18.012Z,0.90
2024-02-24T19:14:51.803Z,1.00
2024-02-24T19:17:22.122Z,0.88
2024-02-24T19:19:50.202Z,0.90
2024-02-24T19:22:19.116Z,0.93
2024-02-24T19:24:46.117Z,0.80
2024-02-24T19:27:13.314Z,0.60
2024-02-24T19:29:44.566Z,0.70
2024-02-24T19:32:12.130Z,0.80
2024-02-24T19:34:39.361Z,0.68
2024-02-24T19:37:09.970Z,0.90
2024-02-24T19:39:37.189Z,0.68
2024-02-24T19:42:04.502Z,0.93
2024-02-24T19:44:31.829Z,0.60
2024-02-24T19:46:58.875Z,0.80
2024-02-24T19:49:25.891Z,0.70
2024-02-24T19:51:53.051Z,0.80
2024-02-24T19:54:20.101Z,0.80
2024-02-24T19:56:47.108Z,0.80
2024-02-24T19:59:14.164Z,0.80
2024-02-24T20:01:41.729Z,1.10
2024-02-24T20:04:09.266Z,1.08
2024-02-24T20:06:36.935Z,1.02
2024-02-24T20:09:04.447Z,0.73
2024-02-24T20:11:31.818Z,0.70
2024-02-24T20:13:58.894Z,0.90
2024-02-24T20:16:25.956Z,0.82
2024-02-24T20:18:53.093Z,0.80
2024-02-24T20:21:20.465Z,0.80
2024-02-24T20:23:47.860Z,0.85
2024-02-24T20:26:15.070Z,1.15
2024-02-24T20:28:45.012Z,0.80
2024-02-24T20:31:14.323Z,0.80
2024-02-24T20:33:47.429Z,1.00
2024-02-24T20:36:20.060Z,0.95
2024-02-24T20:38:48.905Z,0.85
2024-02-24T20:41:19.572Z,0.88
2024-02-24T20:43:47.117Z,0.90
2024-02-24T20:46:14.160Z,0.73
2024-02-24T20:48:41.875Z,0.90
2024-02-24T20:51:09.175Z,0.90
2024-02-24T20:53:36.246Z,1.00
2024-02-24T20:56:03.363Z,0.90
2024-02-24T20:58:32.837Z,0.90
2024-02-24T21:00:59.881Z,1.08
2024-02-24T21:03:27.481Z,1.05
2024-02-24T21:05:54.725Z,1.20
2024-02-24T21:08:21.779Z,1.23
2024-02-24T21:10:48.790Z,1.33
2024-02-24T21:13:15.944Z,1.20
2024-02-24T21:15:42.965Z,1.10
2024-02-24T21:18:10.366Z,1.30
2024-02-24T21:20:37.568Z,1.20
2024-02-24T21:23:04.795Z,1.42
2024-02-24T21:25:32.737Z,1.10
2024-02-24T21:27:59.807Z,1.20
2024-02-24T21:30:26.797Z,1.00
2024-02-24T21:32:54.177Z,1.02
2024-02-24T21:35:21.382Z,0.90
2024-02-24T21:37:48.502Z,1.02
2024-02-24T21:40:15.764Z,0.90
2024-02-24T21:42:43.240Z,1.02
2024-02-24T21:45:10.586Z,1.10
2024-02-24T21:47:37.750Z,0.80
2024-02-24T21:50:05.360Z,1.00
2024-02-24T21:52:35.972Z,1.10
2024-02-24T21:55:03.817Z,0.90
2024-02-24T21:57:33.175Z,1.00
2024-02-24T22:00:01.190Z,1.30
2024-02-24T22:02:29.252Z,0.90
2024-02-24T22:04:56.683Z,0.90
2024-02-24T22:07:25.789Z,0.90
2024-02-24T22:09:52.998Z,0.80
2024-02-24T22:12:20.217Z,1.10
2024-02-24T22:14:47.323Z,0.65
2024-02-24T22:17:15.060Z,0.80
2024-02-24T22:19:42.313Z,0.80
2024-02-24T22:22:09.394Z,0.98
2024-02-24T22:24:36.483Z,0.77
2024-02-24T22:27:03.786Z,0.73
2024-02-24T22:29:31.164Z,0.80
2024-02-24T22:31:58.270Z,0.90
2024-02-24T22:34:25.522Z,0.93
2024-02-24T22:36:53.020Z,0.90
2024-02-24T22:39:20.109Z,0.80
2024-02-24T22:41:47.836Z,1.05
2024-02-24T22:44:15.117Z,1.05
2024-02-24T22:46:42.321Z,0.90
2024-02-24T22:49:09.918Z,1.00
2024-02-24T22:51:37.110Z,0.73
2024-02-24T22:54:04.656Z,0.63
2024-02-24T22:56:31.878Z,0.80
2024-02-24T22:59:02.045Z,0.80
2024-02-24T23:01:31.391Z,0.80
2024-02-24T23:03:59.864Z,0.80
2024-02-24T23:06:27.075Z,1.00
2024-02-24T23:08:54.216Z,0.70
2024-02-24T23:11:29.721Z,0.80
2024-02-24T23:14:03.985Z,0.90
2024-02-24T23:16:31.047Z,1.00
2024-02-24T23:18:59.841Z,0.98
2024-02-24T23:21:31.149Z,0.95
2024-02-24T23:23:58.609Z,0.80
2024-02-24T23:26:25.819Z,0.80
2024-02-24T23:28:53.001Z,0.98
2024-02-24T23:31:19.895Z,0.70
2024-02-24T23:33:47.003Z,0.73
2024-02-24T23:36:14.244Z,1.00
2024-02-24T23:38:41.395Z,0.90
2024-02-24T23:41:08.278Z,0.90
2024-02-24T23:43:35.309Z,0.75
2024-02-24T23:46:02.323Z,1.00
2024-02-24T23:48:29.450Z,0.90
2024-02-24T23:50:56.434Z,0.75
2024-02-24T23:53:23.470Z,1.02
2024-02-24T23:55:50.398Z,0.70
2024-02-24T23:58:17.354Z,0.80
